sensor_id;sensor_type;location;lat;lon;timestamp;pressure;altitude;pressure_sealevel;temperature;humidity
22000;BME280;11164;48.818;2.322;2024-02-28T00:00:56;101165.63;;;8.24;42.54
22000;BME280;11164;48.818;2.322;2024-02-28T00:03:21;101167.16;;;8.10;42.91
22000;BME280;11164;48.818;2.322;2024-02-28T00:05:48;101169.16;;;8.08;42.92
22000;BME280;11164;48.818;2.322;2024-02-28T00:08:14;101162.63;;;8.19;42.61
22000;BME280;11164;48.818;2.322;2024-02-28T00:10:39;101160.09;;;8.17;42.17
22000;BME280;11164;48.818;2.322;2024-02-28T00:13:05;101165.13;;;8.20;42.75
22000;BME280;11164;48.818;2.322;2024-02-28T00:15:30;101164.78;;;8.23;42.49
22000;BME280;11164;48.818;2.322;2024-02-28T00:17:55;101159.44;;;8.15;42.39
22000;BME280;11164;48.818;2.322;2024-02-28T00:20:21;101158.94;;;8.03;43.26
22000;BME280;11164;48.818;2.322;2024-02-28T00:22:46;101163.44;;;8.19;42.59
22000;BME280;11164;48.818;2.322;2024-02-28T00:25:11;101160.75;;;8.28;42.64
22000;BME280;11164;48.818;2.322;2024-02-28T00:27:38;101159.56;;;8.30;42.15
22000;BME280;11164;48.818;2.322;2024-02-28T00:30:04;101159.56;;;8.22;42.58
22000;BME280;11164;48.818;2.322;2024-02-28T00:32:32;101160.59;;;8.29;42.23
22000;BME280;11164;48.818;2.322;2024-02-28T00:34:57;101158.91;;;8.28;42.21
22000;BME280;11164;48.818;2.322;2024-02-28T00:37:22;101159.41;;;8.32;42.14
22000;BME280;11164;48.818;2.322;2024-02-28T00:39:50;101152.88;;;8.18;42.46
22000;BME280;11164;48.818;2.322;2024-02-28T00:42:15;101158.75;;;8.21;42.49
22000;BME280;11164;48.818;2.322;2024-02-28T00:44:40;101156.19;;;8.44;41.85
22000;BME280;11164;48.818;2.322;2024-02-28T00:47:08;101164.59;;;8.41;41.80
22000;BME280;11164;48.818;2.322;2024-02-28T00:49:33;101164.13;;;8.13;42.35
22000;BME280;11164;48.818;2.322;2024-02-28T00:51:59;101164.81;;;8.07;42.48
22000;BME280;11164;48.818;2.322;2024-02-28T00:54:25;101177.75;;;8.12;42.20
22000;BME280;11164;48.818;2.322;2024-02-28T00:56:51;101167.81;;;8.12;42.42
22000;BME280;11164;48.818;2.322;2024-02-28T00:59:16;101172.50;;;8.18;42.17
22000;BME280;11164;48.818;2.322;2024-02-28T01:01:41;101172.69;;;8.09;42.79
22000;BME280;11164;48.818;2.322;2024-02-28T01:04:07;101162.78;;;8.17;42.40
22000;BME280;11164;48.818;2.322;2024-02-28T01:06:32;101164.63;;;8.09;42.32
22000;BME280;11164;48.818;2.322;2024-02-28T01:08:58;101171.84;;;8.00;42.84
22000;BME280;11164;48.818;2.322;2024-02-28T01:11:24;101174.38;;;7.93;43.07
22000;BME280;11164;48.818;2.322;2024-02-28T01:13:49;101172.69;;;8.09;42.60
22000;BME280;11164;48.818;2.322;2024-02-28T01:16:14;101160.44;;;8.06;42.71
22000;BME280;11164;48.818;2.322;2024-02-28T01:22:01;101167.97;;;8.35;42.05
22000;BME280;11164;48.818;2.322;2024-02-28T01:24:26;101152.88;;;8.34;41.98
22000;BME280;11164;48.818;2.322;2024-02-28T01:26:52;101179.03;;;8.32;41.94
22000;BME280;11164;48.818;2.322;2024-02-28T01:29:17;101175.84;;;8.37;41.81
22000;BME280;11164;48.818;2.322;2024-02-28T01:31:42;101161.44;;;8.30;41.99
22000;BME280;11164;48.818;2.322;2024-02-28T01:34:08;101170.16;;;8.40;41.86
22000;BME280;11164;48.818;2.322;2024-02-28T01:36:33;101160.56;;;8.54;41.48
22000;BME280;11164;48.818;2.322;2024-02-28T01:38:58;101164.78;;;8.48;41.69
22000;BME280;11164;48.818;2.322;2024-02-28T01:41:24;101165.59;;;8.40;41.64
22000;BME280;11164;48.818;2.322;2024-02-28T01:43:49;101169.44;;;8.54;41.19
22000;BME280;11164;48.818;2.322;2024-02-28T01:46:26;101164.28;;;8.36;41.96
22000;BME280;11164;48.818;2.322;2024-02-28T01:48:56;101169.31;;;8.23;41.72
22000;BME280;11164;48.818;2.322;2024-02-28T01:51:23;101171.00;;;8.16;41.77
22000;BME280;11164;48.818;2.322;2024-02-28T01:53:50;101182.25;;;8.11;41.80
22000;BME280;11164;48.818;2.322;2024-02-28T01:56:16;101174.69;;;8.15;41.85
22000;BME280;11164;48.818;2.322;2024-02-28T01:58:45;101176.88;;;8.19;41.95
22000;BME280;11164;48.818;2.322;2024-02-28T02:01:13;101183.25;;;8.35;41.60
22000;BME280;11164;48.818;2.322;2024-02-28T02:03:38;101179.03;;;8.40;41.44
22000;BME280;11164;48.818;2.322;2024-02-28T02:06:04;101171.34;;;8.29;41.61
22000;BME280;11164;48.818;2.322;2024-02-28T02:08:30;101169.66;;;8.20;41.67
22000;BME280;11164;48.818;2.322;2024-02-28T02:10:55;101167.81;;;8.12;41.78
22000;BME280;11164;48.818;2.322;2024-02-28T02:13:21;101166.47;;;8.08;42.13
22000;BME280;11164;48.818;2.322;2024-02-28T02:15:47;101162.44;;;8.12;42.00
22000;BME280;11164;48.818;2.322;2024-02-28T02:18:12;101157.41;;;8.09;42.19
22000;BME280;11164;48.818;2.322;2024-02-28T02:20:39;101150.53;;;8.07;42.08
22000;BME280;11164;48.818;2.322;2024-02-28T02:23:08;101158.59;;;8.07;42.14
22000;BME280;11164;48.818;2.322;2024-02-28T02:25:33;101164.13;;;7.97;42.17
22000;BME280;11164;48.818;2.322;2024-02-28T02:27:58;101179.25;;;7.98;42.10
22000;BME280;11164;48.818;2.322;2024-02-28T02:30:24;101169.84;;;8.10;42.00
22000;BME280;11164;48.818;2.322;2024-02-28T02:32:49;101159.91;;;8.27;41.79
22000;BME280;11164;48.818;2.322;2024-02-28T02:35:15;101170.00;;;8.33;41.36
22000;BME280;11164;48.818;2.322;2024-02-28T02:37:44;101164.28;;;8.28;41.67
22000;BME280;11164;48.818;2.322;2024-02-28T02:40:11;101167.31;;;8.25;41.46
22000;BME280;11164;48.818;2.322;2024-02-28T02:42:37;101167.50;;;8.15;41.64
22000;BME280;11164;48.818;2.322;2024-02-28T02:45:02;101169.81;;;8.18;41.61
22000;BME280;11164;48.818;2.322;2024-02-28T02:47:28;101156.72;;;7.91;42.30
22000;BME280;11164;48.818;2.322;2024-02-28T02:49:54;101171.00;;;7.99;42.00
22000;BME280;11164;48.818;2.322;2024-02-28T02:52:19;101172.19;;;8.05;41.98
22000;BME280;11164;48.818;2.322;2024-02-28T02:54:44;101173.50;;;8.01;42.28
22000;BME280;11164;48.818;2.322;2024-02-28T02:57:10;101167.44;;;7.82;42.79
22000;BME280;11164;48.818;2.322;2024-02-28T02:59:36;101177.22;;;7.92;42.67
22000;BME280;11164;48.818;2.322;2024-02-28T03:02:01;101182.25;;;8.03;42.20
22000;BME280;11164;48.818;2.322;2024-02-28T03:04:26;101176.88;;;8.11;41.90
22000;BME280;11164;48.818;2.322;2024-02-28T03:06:51;101176.53;;;8.14;41.74
22000;BME280;11164;48.818;2.322;2024-02-28T03:09:17;101186.63;;;8.04;42.16
22000;BME280;11164;48.818;2.322;2024-02-28T03:11:42;101194.16;;;8.00;42.39
22000;BME280;11164;48.818;2.322;2024-02-28T03:14:08;101198.53;;;7.93;42.25
22000;BME280;11164;48.818;2.322;2024-02-28T03:16:33;101206.75;;;8.00;42.06
22000;BME280;11164;48.818;2.322;2024-02-28T03:19:02;101212.97;;;8.09;41.98
22000;BME280;11164;48.818;2.322;2024-02-28T03:21:27;101208.44;;;8.01;42.16
22000;BME280;11164;48.818;2.322;2024-02-28T03:23:53;101203.84;;;7.85;42.26
22000;BME280;11164;48.818;2.322;2024-02-28T03:26:18;101221.50;;;7.87;42.18
22000;BME280;11164;48.818;2.322;2024-02-28T03:28:43;101221.63;;;7.78;42.47
22000;BME280;11164;48.818;2.322;2024-02-28T03:31:09;101222.47;;;7.70;42.86
22000;BME280;11164;48.818;2.322;2024-02-28T03:33:34;101227.84;;;7.70;42.61
22000;BME280;11164;48.818;2.322;2024-02-28T03:36:00;101220.25;;;7.65;42.41
22000;BME280;11164;48.818;2.322;2024-02-28T03:38:25;101212.91;;;7.76;42.52
22000;BME280;11164;48.818;2.322;2024-02-28T03:40:51;101211.53;;;7.72;42.86
22000;BME280;11164;48.818;2.322;2024-02-28T03:43:16;101209.53;;;7.82;42.26
22000;BME280;11164;48.818;2.322;2024-02-28T03:45:41;101207.75;;;7.91;41.91
22000;BME280;11164;48.818;2.322;2024-02-28T03:48:07;101210.25;;;7.92;41.88
22000;BME280;11164;48.818;2.322;2024-02-28T03:50:32;101215.78;;;7.91;42.40
22000;BME280;11164;48.818;2.322;2024-02-28T03:52:57;101226.84;;;7.79;42.09
22000;BME280;11164;48.818;2.322;2024-02-28T03:55:23;101233.38;;;7.77;42.31
22000;BME280;11164;48.818;2.322;2024-02-28T03:57:48;101226.97;;;7.69;42.29
22000;BME280;11164;48.818;2.322;2024-02-28T04:00:17;101219.78;;;7.78;42.24
22000;BME280;11164;48.818;2.322;2024-02-28T04:02:42;101231.03;;;7.82;42.28
22000;BME280;11164;48.818;2.322;2024-02-28T04:05:08;101217.44;;;7.83;42.21
22000;BME280;11164;48.818;2.322;2024-02-28T04:07:33;101202.06;;;7.94;42.08
22000;BME280;11164;48.818;2.322;2024-02-28T04:09:58;101201.88;;;7.95;42.23
22000;BME280;11164;48.818;2.322;2024-02-28T04:12:24;101201.50;;;7.90;42.13
22000;BME280;11164;48.818;2.322;2024-02-28T04:14:49;101207.75;;;7.91;42.08
22000;BME280;11164;48.818;2.322;2024-02-28T04:17:14;101205.06;;;7.91;42.10
22000;BME280;11164;48.818;2.322;2024-02-28T04:19:40;101212.59;;;7.79;42.07
22000;BME280;11164;48.818;2.322;2024-02-28T04:22:05;101205.00;;;7.74;42.53
22000;BME280;11164;48.818;2.322;2024-02-28T04:24:31;101210.72;;;7.79;42.35
22000;BME280;11164;48.818;2.322;2024-02-28T04:26:57;101201.50;;;7.74;42.11
22000;BME280;11164;48.818;2.322;2024-02-28T04:29:24;101213.91;;;7.75;42.53
22000;BME280;11164;48.818;2.322;2024-02-28T04:31:50;101222.47;;;7.78;42.25
22000;BME280;11164;48.818;2.322;2024-02-28T04:34:15;101221.16;;;7.82;42.07
22000;BME280;11164;48.818;2.322;2024-02-28T04:36:40;101217.72;;;7.56;42.57
22000;BME280;11164;48.818;2.322;2024-02-28T04:39:05;101225.56;;;7.41;42.99
22000;BME280;11164;48.818;2.322;2024-02-28T04:41:32;101218.81;;;7.28;43.62
22000;BME280;11164;48.818;2.322;2024-02-28T04:43:59;101231.72;;;7.33;43.09
22000;BME280;11164;48.818;2.322;2024-02-28T04:46:24;101217.75;;;7.21;43.81
22000;BME280;11164;48.818;2.322;2024-02-28T04:48:49;101226.88;;;7.28;43.54
22000;BME280;11164;48.818;2.322;2024-02-28T04:51:16;101231.41;;;7.36;43.08
22000;BME280;11164;48.818;2.322;2024-02-28T04:53:42;101231.28;;;7.46;42.98
22000;BME280;11164;48.818;2.322;2024-02-28T04:56:08;101230.78;;;7.42;43.24
22000;BME280;11164;48.818;2.322;2024-02-28T04:58:33;101232.44;;;7.43;43.15
22000;BME280;11164;48.818;2.322;2024-02-28T05:00:58;101234.28;;;7.43;43.26
22000;BME280;11164;48.818;2.322;2024-02-28T05:03:24;101233.38;;;7.26;43.49
22000;BME280;11164;48.818;2.322;2024-02-28T05:05:50;101233.84;;;7.13;43.74
22000;BME280;11164;48.818;2.322;2024-02-28T05:08:17;101238.84;;;7.16;43.90
22000;BME280;11164;48.818;2.322;2024-02-28T05:10:43;101240.91;;;7.22;43.63
22000;BME280;11164;48.818;2.322;2024-02-28T05:13:08;101233.22;;;7.27;43.39
22000;BME280;11164;48.818;2.322;2024-02-28T05:15:33;101241.47;;;7.34;43.54
22000;BME280;11164;48.818;2.322;2024-02-28T05:17:58;101241.09;;;7.29;43.33
22000;BME280;11164;48.818;2.322;2024-02-28T05:20:24;101247.50;;;7.36;43.55
22000;BME280;11164;48.818;2.322;2024-02-28T05:22:49;101250.59;;;7.49;43.20
22000;BME280;11164;48.818;2.322;2024-02-28T05:25:15;101256.31;;;7.63;42.78
22000;BME280;11164;48.818;2.322;2024-02-28T05:27:40;101251.81;;;7.72;42.96
22000;BME280;11164;48.818;2.322;2024-02-28T05:30:06;101246.94;;;7.67;42.60
22000;BME280;11164;48.818;2.322;2024-02-28T05:32:32;101261.75;;;7.79;42.82
22000;BME280;11164;48.818;2.322;2024-02-28T05:34:58;101262.81;;;7.95;42.69
22000;BME280;11164;48.818;2.322;2024-02-28T05:37:23;101266.44;;;7.85;42.74
22000;BME280;11164;48.818;2.322;2024-02-28T05:39:50;101263.59;;;7.79;42.85
22000;BME280;11164;48.818;2.322;2024-02-28T05:42:15;101266.94;;;7.81;42.87
22000;BME280;11164;48.818;2.322;2024-02-28T05:44:47;101273.16;;;7.81;43.15
22000;BME280;11164;48.818;2.322;2024-02-28T05:47:13;101272.75;;;7.68;43.77
22000;BME280;11164;48.818;2.322;2024-02-28T05:49:38;101262.97;;;7.42;43.79
22000;BME280;11164;48.818;2.322;2024-02-28T05:52:04;101255.75;;;7.43;44.23
22000;BME280;11164;48.818;2.322;2024-02-28T05:54:29;101255.19;;;7.31;44.19
22000;BME280;11164;48.818;2.322;2024-02-28T05:56:55;101254.56;;;7.45;44.05
22000;BME280;11164;48.818;2.322;2024-02-28T05:59:21;101246.94;;;7.67;43.89
22000;BME280;11164;48.818;2.322;2024-02-28T06:01:46;101237.22;;;7.74;43.48
22000;BME280;11164;48.818;2.322;2024-02-28T06:04:11;101250.50;;;7.76;43.47
22000;BME280;11164;48.818;2.322;2024-02-28T06:06:38;101255.47;;;7.62;43.40
22000;BME280;11164;48.818;2.322;2024-02-28T06:09:03;101255.59;;;7.44;44.15
22000;BME280;11164;48.818;2.322;2024-02-28T06:11:28;101248.69;;;7.34;44.29
22000;BME280;11164;48.818;2.322;2024-02-28T06:13:53;101256.31;;;7.55;43.86
22000;BME280;11164;48.818;2.322;2024-02-28T06:16:19;101256.50;;;7.69;43.59
22000;BME280;11164;48.818;2.322;2024-02-28T06:18:44;101255.03;;;7.75;43.19
22000;BME280;11164;48.818;2.322;2024-02-28T06:21:10;101247.63;;;7.85;42.97
22000;BME280;11164;48.818;2.322;2024-02-28T06:23:35;101259.75;;;7.90;42.95
22000;BME280;11164;48.818;2.322;2024-02-28T06:26:00;101251.03;;;7.87;42.97
22000;BME280;11164;48.818;2.322;2024-02-28T06:28:26;101252.06;;;7.95;42.58
22000;BME280;11164;48.818;2.322;2024-02-28T06:30:51;101254.00;;;7.76;43.11
22000;BME280;11164;48.818;2.322;2024-02-28T06:33:17;101272.47;;;7.79;42.91
22000;BME280;11164;48.818;2.322;2024-02-28T06:35:42;101266.28;;;7.79;42.83
22000;BME280;11164;48.818;2.322;2024-02-28T06:38:08;101282.19;;;7.80;43.17
22000;BME280;11164;48.818;2.322;2024-02-28T06:40:34;101283.22;;;7.79;43.37
22000;BME280;11164;48.818;2.322;2024-02-28T06:43:00;101286.03;;;7.69;43.47
22000;BME280;11164;48.818;2.322;2024-02-28T06:45:25;101290.31;;;7.54;44.05
22000;BME280;11164;48.818;2.322;2024-02-28T06:47:51;101291.81;;;7.48;43.75
22000;BME280;11164;48.818;2.322;2024-02-28T06:50:16;101285.00;;;7.62;43.81
22000;BME280;11164;48.818;2.322;2024-02-28T06:52:42;101294.13;;;7.78;43.36
22000;BME280;11164;48.818;2.322;2024-02-28T06:55:07;101304.59;;;7.97;42.98
22000;BME280;11164;48.818;2.322;2024-02-28T06:57:40;101304.91;;;7.94;43.00
22000;BME280;11164;48.818;2.322;2024-02-28T07:00:07;101295.47;;;7.82;43.50
22000;BME280;11164;48.818;2.322;2024-02-28T07:02:44;101299.16;;;7.81;43.56
22000;BME280;11164;48.818;2.322;2024-02-28T07:05:10;101304.41;;;7.91;43.65
22000;BME280;11164;48.818;2.322;2024-02-28T07:07:35;101306.63;;;8.03;43.16
22000;BME280;11164;48.818;2.322;2024-02-28T07:10:03;101302.44;;;7.93;43.50
22000;BME280;11164;48.818;2.322;2024-02-28T07:12:29;101303.28;;;8.01;43.57
22000;BME280;11164;48.818;2.322;2024-02-28T07:14:55;101300.97;;;8.31;43.20
22000;BME280;11164;48.818;2.322;2024-02-28T07:17:20;101303.84;;;8.54;42.61
22000;BME280;11164;48.818;2.322;2024-02-28T07:19:46;101303.00;;;8.78;42.44
22000;BME280;11164;48.818;2.322;2024-02-28T07:22:11;101295.25;;;8.84;42.86
22000;BME280;11164;48.818;2.322;2024-02-28T07:24:36;101300.13;;;8.80;42.69
22000;BME280;11164;48.818;2.322;2024-02-28T07:27:02;101302.31;;;8.68;43.25
22000;BME280;11164;48.818;2.322;2024-02-28T07:29:27;101309.38;;;8.77;43.11
22000;BME280;11164;48.818;2.322;2024-02-28T07:31:53;101304.00;;;8.94;43.10
22000;BME280;11164;48.818;2.322;2024-02-28T07:34:19;101304.75;;;9.19;42.67
22000;BME280;11164;48.818;2.322;2024-02-28T07:36:44;101302.06;;;9.19;42.46
22000;BME280;11164;48.818;2.322;2024-02-28T07:39:09;101302.56;;;9.23;42.57
22000;BME280;11164;48.818;2.322;2024-02-28T07:41:39;101297.19;;;9.23;42.71
22000;BME280;11164;48.818;2.322;2024-02-28T07:44:04;101295.00;;;9.26;42.64
22000;BME280;11164;48.818;2.322;2024-02-28T07:46:30;101306.78;;;9.17;43.27
22000;BME280;11164;48.818;2.322;2024-02-28T07:48:55;101314.84;;;9.17;42.67
22000;BME280;11164;48.818;2.322;2024-02-28T07:51:21;101305.94;;;9.25;42.73
22000;BME280;11164;48.818;2.322;2024-02-28T07:53:47;101313.00;;;9.34;42.65
22000;BME280;11164;48.818;2.322;2024-02-28T07:56:16;101309.59;;;9.40;42.84
22000;BME280;11164;48.818;2.322;2024-02-28T07:58:42;101314.19;;;9.23;43.14
22000;BME280;11164;48.818;2.322;2024-02-28T08:01:08;101313.53;;;9.13;43.51
22000;BME280;11164;48.818;2.322;2024-02-28T08:03:33;101322.59;;;9.12;43.67
22000;BME280;11164;48.818;2.322;2024-02-28T08:05:59;101322.56;;;9.36;43.08
22000;BME280;11164;48.818;2.322;2024-02-28T08:08:24;101325.13;;;9.22;43.23
22000;BME280;11164;48.818;2.322;2024-02-28T08:10:49;101332.53;;;9.03;43.75
22000;BME280;11164;48.818;2.322;2024-02-28T08:13:16;101325.47;;;9.10;43.58
22000;BME280;11164;48.818;2.322;2024-02-28T08:15:42;101339.38;;;9.47;43.10
22000;BME280;11164;48.818;2.322;2024-02-28T08:18:07;101340.28;;;9.79;42.35
22000;BME280;11164;48.818;2.322;2024-02-28T08:20:33;101340.00;;;9.97;42.28
22000;BME280;11164;48.818;2.322;2024-02-28T08:22:58;101340.91;;;10.20;42.08
22000;BME280;11164;48.818;2.322;2024-02-28T08:25:25;101338.69;;;10.24;42.05
22000;BME280;11164;48.818;2.322;2024-02-28T08:27:50;101343.00;;;10.56;42.06
22000;BME280;11164;48.818;2.322;2024-02-28T08:30:15;101342.50;;;10.61;41.66
22000;BME280;11164;48.818;2.322;2024-02-28T08:32:41;101341.66;;;10.60;41.90
22000;BME280;11164;48.818;2.322;2024-02-28T08:35:08;101345.69;;;10.56;42.28
22000;BME280;11164;48.818;2.322;2024-02-28T08:37:33;101352.28;;;10.54;42.63
22000;BME280;11164;48.818;2.322;2024-02-28T08:39:59;101348.84;;;10.68;42.27
22000;BME280;11164;48.818;2.322;2024-02-28T08:42:25;101351.03;;;10.87;42.34
22000;BME280;11164;48.818;2.322;2024-02-28T08:44:50;101349.38;;;10.86;42.39
22000;BME280;11164;48.818;2.322;2024-02-28T08:47:16;101342.78;;;11.04;42.04
22000;BME280;11164;48.818;2.322;2024-02-28T08:49:41;101337.50;;;11.11;42.19
22000;BME280;11164;48.818;2.322;2024-02-28T08:52:06;101334.69;;;11.04;42.28
22000;BME280;11164;48.818;2.322;2024-02-28T08:54:32;101328.94;;;11.22;42.23
22000;BME280;11164;48.818;2.322;2024-02-28T08:56:57;101315.91;;;11.55;41.68
22000;BME280;11164;48.818;2.322;2024-02-28T08:59:22;101303.78;;;11.81;41.19
22000;BME280;11164;48.818;2.322;2024-02-28T09:01:48;101322.13;;;12.00;41.13
22000;BME280;11164;48.818;2.322;2024-02-28T09:04:14;101333.19;;;12.06;41.42
22000;BME280;11164;48.818;2.322;2024-02-28T09:06:40;101323.56;;;12.18;41.28
22000;BME280;11164;48.818;2.322;2024-02-28T09:09:05;101333.94;;;12.14;41.59
22000;BME280;11164;48.818;2.322;2024-02-28T09:11:30;101330.16;;;11.94;41.96
22000;BME280;11164;48.818;2.322;2024-02-28T09:13:55;101338.84;;;12.11;41.62
22000;BME280;11164;48.818;2.322;2024-02-28T09:16:21;101341.66;;;12.39;41.40
22000;BME280;11164;48.818;2.322;2024-02-28T09:18:46;101343.78;;;12.65;41.10
22000;BME280;11164;48.818;2.322;2024-02-28T09:21:11;101342.03;;;12.57;41.16
22000;BME280;11164;48.818;2.322;2024-02-28T09:23:37;101341.75;;;12.46;41.28
22000;BME280;11164;48.818;2.322;2024-02-28T09:26:06;101340.16;;;12.36;42.04
22000;BME280;11164;48.818;2.322;2024-02-28T09:28:32;101325.63;;;12.37;41.81
22000;BME280;11164;48.818;2.322;2024-02-28T09:30:57;101336.53;;;12.87;41.31
22000;BME280;11164;48.818;2.322;2024-02-28T09:33:23;101336.81;;;12.99;41.04
22000;BME280;11164;48.818;2.322;2024-02-28T09:35:48;101336.97;;;13.19;40.97
22000;BME280;11164;48.818;2.322;2024-02-28T09:38:14;101345.97;;;13.26;41.08
22000;BME280;11164;48.818;2.322;2024-02-28T09:40:39;101338.22;;;13.52;40.43
22000;BME280;11164;48.818;2.322;2024-02-28T09:43:06;101340.00;;;13.38;41.09
22000;BME280;11164;48.818;2.322;2024-02-28T09:45:35;101351.66;;;13.38;41.08
22000;BME280;11164;48.818;2.322;2024-02-28T09:48:00;101354.47;;;13.23;41.66
22000;BME280;11164;48.818;2.322;2024-02-28T09:50:26;101352.28;;;13.05;41.95
22000;BME280;11164;48.818;2.322;2024-02-28T09:52:53;101353.09;;;13.34;41.75
22000;BME280;11164;48.818;2.322;2024-02-28T09:55:18;101347.91;;;13.81;41.07
22000;BME280;11164;48.818;2.322;2024-02-28T09:57:47;101343.97;;;13.83;41.08
22000;BME280;11164;48.818;2.322;2024-02-28T10:00:14;101344.25;;;13.88;41.42
22000;BME280;11164;48.818;2.322;2024-02-28T10:02:42;101336.44;;;14.27;40.98
22000;BME280;11164;48.818;2.322;2024-02-28T10:05:08;101342.13;;;14.46;40.80
22000;BME280;11164;48.818;2.322;2024-02-28T10:07:33;101339.94;;;14.21;40.95
22000;BME280;11164;48.818;2.322;2024-02-28T10:09:59;101336.03;;;14.30;41.17
22000;BME280;11164;48.818;2.322;2024-02-28T10:12:24;101332.53;;;14.63;41.02
22000;BME280;11164;48.818;2.322;2024-02-28T10:14:50;101348.00;;;14.83;40.56
22000;BME280;11164;48.818;2.322;2024-02-28T10:17:16;101350.91;;;14.61;41.00
22000;BME280;11164;48.818;2.322;2024-02-28T10:19:41;101350.06;;;14.80;41.06
22000;BME280;11164;48.818;2.322;2024-02-28T10:22:07;101339.84;;;15.16;40.56
22000;BME280;11164;48.818;2.322;2024-02-28T10:24:33;101349.69;;;15.17;40.46
22000;BME280;11164;48.818;2.322;2024-02-28T10:27:02;101344.59;;;15.41;39.95
22000;BME280;11164;48.818;2.322;2024-02-28T10:29:28;101348.63;;;16.03;39.54
22000;BME280;11164;48.818;2.322;2024-02-28T10:31:56;101352.72;;;16.51;38.98
22000;BME280;11164;48.818;2.322;2024-02-28T10:34:22;101348.50;;;16.23;39.75
22000;BME280;11164;48.818;2.322;2024-02-28T10:36:49;101353.91;;;15.85;40.03
22000;BME280;11164;48.818;2.322;2024-02-28T10:39:15;101357.75;;;15.50;40.60
22000;BME280;11164;48.818;2.322;2024-02-28T10:41:41;101351.16;;;14.99;40.99
22000;BME280;11164;48.818;2.322;2024-02-28T10:44:08;101350.09;;;14.94;41.16
22000;BME280;11164;48.818;2.322;2024-02-28T10:46:37;101353.44;;;15.09;40.89
22000;BME280;11164;48.818;2.322;2024-02-28T10:49:04;101354.47;;;14.95;40.73
22000;BME280;11164;48.818;2.322;2024-02-28T10:51:35;101357.59;;;14.72;40.75
22000;BME280;11164;48.818;2.322;2024-02-28T10:54:10;101353.44;;;14.83;36.43
22000;BME280;11164;48.818;2.322;2024-02-28T10:56:37;101349.44;;;14.58;41.18
22000;BME280;11164;48.818;2.322;2024-02-28T10:59:06;101361.31;;;14.57;41.02
22000;BME280;11164;48.818;2.322;2024-02-28T11:01:31;101352.34;;;14.63;40.82
22000;BME280;11164;48.818;2.322;2024-02-28T11:03:57;101355.53;;;15.00;40.46
22000;BME280;11164;48.818;2.322;2024-02-28T11:06:22;101360.53;;;15.10;40.02
22000;BME280;11164;48.818;2.322;2024-02-28T11:08:48;101369.03;;;14.47;40.59
22000;BME280;11164;48.818;2.322;2024-02-28T11:11:18;101378.81;;;14.41;40.55
22000;BME280;11164;48.818;2.322;2024-02-28T11:13:56;101369.53;;;14.84;37.63
22000;BME280;11164;48.818;2.322;2024-02-28T11:18:53;101369.72;;;14.01;40.83
22000;BME280;11164;48.818;2.322;2024-02-28T11:21:18;101381.47;;;14.15;40.17
22000;BME280;11164;48.818;2.322;2024-02-28T11:23:47;101374.78;;;14.11;39.12
22000;BME280;11164;48.818;2.322;2024-02-28T11:26:15;101379.94;;;13.99;40.08
22000;BME280;11164;48.818;2.322;2024-02-28T11:28:41;101387.91;;;13.65;40.25
22000;BME280;11164;48.818;2.322;2024-02-28T11:31:06;101382.59;;;13.50;40.30
22000;BME280;11164;48.818;2.322;2024-02-28T11:33:31;101380.19;;;13.69;40.31
22000;BME280;11164;48.818;2.322;2024-02-28T11:35:59;101362.31;;;13.81;39.76
22000;BME280;11164;48.818;2.322;2024-02-28T11:38:25;101371.63;;;14.07;39.63
22000;BME280;11164;48.818;2.322;2024-02-28T11:40:51;101364.47;;;13.93;39.67
22000;BME280;11164;48.818;2.322;2024-02-28T11:43:17;101359.53;;;13.68;39.60
22000;BME280;11164;48.818;2.322;2024-02-28T11:45:43;101365.69;;;13.48;39.81
22000;BME280;11164;48.818;2.322;2024-02-28T11:48:09;101365.66;;;13.83;39.59
22000;BME280;11164;48.818;2.322;2024-02-28T11:50:37;101361.56;;;13.94;39.37
22000;BME280;11164;48.818;2.322;2024-02-28T11:53:03;101362.25;;;14.10;39.41
22000;BME280;11164;48.818;2.322;2024-02-28T11:55:30;101357.72;;;14.30;38.96
22000;BME280;11164;48.818;2.322;2024-02-28T11:57:55;101365.16;;;14.08;38.99
22000;BME280;11164;48.818;2.322;2024-02-28T12:00:21;101366.19;;;13.30;39.91
22000;BME280;11164;48.818;2.322;2024-02-28T12:02:46;101351.28;;;13.41;39.92
22000;BME280;11164;48.818;2.322;2024-02-28T12:05:12;101352.88;;;14.05;39.19
22000;BME280;11164;48.818;2.322;2024-02-28T12:07:37;101350.28;;;14.52;38.53
22000;BME280;11164;48.818;2.322;2024-02-28T12:10:04;101352.75;;;14.54;38.42
22000;BME280;11164;48.818;2.322;2024-02-28T12:12:29;101358.53;;;14.24;38.87
22000;BME280;11164;48.818;2.322;2024-02-28T12:14:59;101355.63;;;13.77;39.21
22000;BME280;11164;48.818;2.322;2024-02-28T12:17:25;101351.25;;;13.76;39.36
22000;BME280;11164;48.818;2.322;2024-02-28T12:19:51;101352.53;;;13.10;39.99
22000;BME280;11164;48.818;2.322;2024-02-28T12:22:17;101349.53;;;12.77;40.40
22000;BME280;11164;48.818;2.322;2024-02-28T12:24:42;101336.13;;;13.19;39.75
22000;BME280;11164;48.818;2.322;2024-02-28T12:27:07;101336.72;;;13.49;39.20
22000;BME280;11164;48.818;2.322;2024-02-28T12:29:33;101325.16;;;13.34;39.37
22000;BME280;11164;48.818;2.322;2024-02-28T12:31:58;101330.50;;;13.20;39.46
22000;BME280;11164;48.818;2.322;2024-02-28T12:34:23;101312.94;;;13.44;39.51
22000;BME280;11164;48.818;2.322;2024-02-28T12:36:49;101317.78;;;13.97;38.80
22000;BME280;11164;48.818;2.322;2024-02-28T12:39:14;101304.53;;;14.36;38.61
22000;BME280;11164;48.818;2.322;2024-02-28T12:41:40;101317.91;;;14.44;38.73
22000;BME280;11164;48.818;2.322;2024-02-28T12:44:05;101302.00;;;14.14;39.07
22000;BME280;11164;48.818;2.322;2024-02-28T12:46:31;101302.00;;;14.34;38.82
22000;BME280;11164;48.818;2.322;2024-02-28T12:48:57;101291.13;;;14.21;38.88
22000;BME280;11164;48.818;2.322;2024-02-28T12:51:39;101288.22;;;14.09;38.00
22000;BME280;11164;48.818;2.322;2024-02-28T12:54:05;101286.59;;;14.75;38.42
22000;BME280;11164;48.818;2.322;2024-02-28T12:56:31;101285.28;;;15.24;37.84